Radar AviationWeather DUATS TFRs Wunderground Accuweather Weather.com

alt : Radar

TAFs

KJXN 261140Z 2612/2712 20008KT P6SM SKC
   FM261800 21010G18KT P6SM VCTS BKN050CB
   FM270100 24006KT P6SM BKN200
KFWA 261137Z 2612/2712 21010KT P6SM SCT250
   FM261700 22012KT P6SM SCT060
     TEMPO 2621/2623 4SM TSRA BKN060CB
   FM270100 23005KT P6SM BKN070
KDTW 261123Z 2612/2718 18006KT P6SM BKN200
   FM261500 20012G18KT P6SM SCT050 BKN150
   FM262000 21012G18KT P6SM BKN050 BKN110
     PROB30 2621/2624 3SM TSRA SCT025 OVC050CB
   FM270000 23009KT P6SM BKN050 BKN100
   FM270400 24005KT P6SM SKC
   FM271600 25016G24KT P6SM FEW060
KTOL 261120Z 2612/2712 21008KT P6SM SCT150 BKN200
   FM262200 22010KT P6SM VCTS SCT050CB OVC120
   FM270300 23005KT P6SM SCT050 OVC150
   FM271000 28005KT P6SM SCT150
KCLE 261120Z 2612/2718 17008KT P6SM SCT150 BKN200
   FM261800 20010G18KT P6SM SCT050 BKN200
   FM270300 20008KT P6SM VCTS BKN050CB OVC120
   FM271000 24005KT P6SM SCT050 BKN120
KFDY 261120Z 2612/2712 20010KT P6SM SCT150 BKN200
   FM262300 22010KT P6SM VCTS SCT050CB OVC120
   FM270400 24005KT P6SM SCT050 OVC150
   FM271000 29004KT P6SM SCT150

METARs

KDUH 261135Z AUTO 20005KT 10SM CLR 23/17 A3007 RMK AO2 T02250168
KJXN 261056Z 21005KT 10SM CLR 23/16 A3004 RMK AO2 SLP165 T02280161
KFWA 261054Z 19005KT 10SM BKN250 22/18 A3006 RMK AO2 SLP171 T02170183
KDTW 261053Z 19003KT 7SM BKN250 21/17 A3006 RMK AO2 SLP175 T02060167 $
KFDY 261053Z AUTO 19008KT 10SM CLR 22/17 A3007 RMK AO2 SLP174 T02220172
KTDZ 261053Z AUTO A3007 RMK AO2 SLPNO PWINO PNO $
KTOL 261052Z AUTO 20003KT 10SM CLR 19/16 A3006 RMK AO2 SLP175 T01940156 TSNO $
KCLE 261051Z 17008KT 10SM FEW250 20/14 A3012 RMK AO2 SLP195 T02000144

alt : Satellite

alt : TFRs